sensor_id;sensor_type;location;lat;lon;timestamp;P1;durP1;ratioP1;P2;durP2;ratioP2
19207;SDS011;9737;59.466;18.036;2022-08-19T00:01:29;63.70;;;24.25;;
19207;SDS011;9737;59.466;18.036;2022-08-19T00:04:03;59.85;;;25.05;;
19207;SDS011;9737;59.466;18.036;2022-08-19T00:06:35;71.95;;;25.95;;
19207;SDS011;9737;59.466;18.036;2022-08-19T00:09:04;63.17;;;25.15;;
19207;SDS011;9737;59.466;18.036;2022-08-19T00:11:34;68.53;;;27.25;;
19207;SDS011;9737;59.466;18.036;2022-08-19T00:14:04;63.33;;;24.98;;
19207;SDS011;9737;59.466;18.036;2022-08-19T00:16:33;74.38;;;27.85;;
19207;SDS011;9737;59.466;18.036;2022-08-19T00:19:02;77.38;;;29.55;;
19207;SDS011;9737;59.466;18.036;2022-08-19T00:21:30;68.47;;;25.73;;
19207;SDS011;9737;59.466;18.036;2022-08-19T00:24:03;73.75;;;28.67;;
19207;SDS011;9737;59.466;18.036;2022-08-19T00:26:32;66.22;;;26.65;;
19207;SDS011;9737;59.466;18.036;2022-08-19T00:29:00;85.68;;;29.60;;
19207;SDS011;9737;59.466;18.036;2022-08-19T00:31:28;81.22;;;29.23;;
19207;SDS011;9737;59.466;18.036;2022-08-19T00:33:57;82.53;;;28.88;;
19207;SDS011;9737;59.466;18.036;2022-08-19T00:36:26;86.38;;;30.23;;
19207;SDS011;9737;59.466;18.036;2022-08-19T00:38:55;74.70;;;29.88;;
19207;SDS011;9737;59.466;18.036;2022-08-19T00:41:26;85.38;;;31.25;;
19207;SDS011;9737;59.466;18.036;2022-08-19T00:43:59;85.68;;;30.65;;
19207;SDS011;9737;59.466;18.036;2022-08-19T00:46:29;88.50;;;31.77;;
19207;SDS011;9737;59.466;18.036;2022-08-19T00:48:58;97.90;;;34.42;;
19207;SDS011;9737;59.466;18.036;2022-08-19T00:51:27;90.90;;;34.00;;
19207;SDS011;9737;59.466;18.036;2022-08-19T00:53:59;91.53;;;33.08;;
19207;SDS011;9737;59.466;18.036;2022-08-19T00:56:30;86.63;;;34.78;;
19207;SDS011;9737;59.466;18.036;2022-08-19T00:58:59;90.53;;;35.15;;
19207;SDS011;9737;59.466;18.036;2022-08-19T01:01:28;95.75;;;35.45;;
19207;SDS011;9737;59.466;18.036;2022-08-19T01:03:56;83.13;;;34.70;;
19207;SDS011;9737;59.466;18.036;2022-08-19T01:06:24;77.13;;;34.85;;
19207;SDS011;9737;59.466;18.036;2022-08-19T01:08:53;90.68;;;37.22;;
19207;SDS011;9737;59.466;18.036;2022-08-19T01:11:22;81.75;;;35.38;;
19207;SDS011;9737;59.466;18.036;2022-08-19T01:13:52;85.18;;;34.42;;
19207;SDS011;9737;59.466;18.036;2022-08-19T01:16:22;75.28;;;34.13;;
19207;SDS011;9737;59.466;18.036;2022-08-19T01:18:53;81.53;;;34.90;;
19207;SDS011;9737;59.466;18.036;2022-08-19T01:21:22;74.72;;;35.17;;
19207;SDS011;9737;59.466;18.036;2022-08-19T01:23:56;73.45;;;32.90;;
19207;SDS011;9737;59.466;18.036;2022-08-19T01:26:25;64.47;;;31.60;;
19207;SDS011;9737;59.466;18.036;2022-08-19T01:28:57;70.47;;;34.03;;
19207;SDS011;9737;59.466;18.036;2022-08-19T01:31:30;75.63;;;35.65;;
19207;SDS011;9737;59.466;18.036;2022-08-19T01:33:59;70.07;;;32.20;;
19207;SDS011;9737;59.466;18.036;2022-08-19T01:36:30;61.83;;;31.73;;
19207;SDS011;9737;59.466;18.036;2022-08-19T01:39:04;73.18;;;34.50;;
19207;SDS011;9737;59.466;18.036;2022-08-19T01:41:34;75.60;;;33.03;;
19207;SDS011;9737;59.466;18.036;2022-08-19T01:44:02;69.18;;;32.08;;
19207;SDS011;9737;59.466;18.036;2022-08-19T01:46:44;67.03;;;32.50;;
19207;SDS011;9737;59.466;18.036;2022-08-19T01:49:14;61.38;;;31.02;;
19207;SDS011;9737;59.466;18.036;2022-08-19T01:51:45;62.60;;;33.35;;
19207;SDS011;9737;59.466;18.036;2022-08-19T01:54:16;60.15;;;29.48;;
19207;SDS011;9737;59.466;18.036;2022-08-19T01:56:53;65.07;;;32.20;;
19207;SDS011;9737;59.466;18.036;2022-08-19T01:59:25;60.90;;;30.42;;
19207;SDS011;9737;59.466;18.036;2022-08-19T02:01:53;60.92;;;32.20;;
19207;SDS011;9737;59.466;18.036;2022-08-19T02:04:21;51.60;;;28.73;;
19207;SDS011;9737;59.466;18.036;2022-08-19T02:06:52;57.53;;;29.10;;
19207;SDS011;9737;59.466;18.036;2022-08-19T02:09:21;56.58;;;29.60;;
19207;SDS011;9737;59.466;18.036;2022-08-19T02:11:49;65.70;;;31.40;;
19207;SDS011;9737;59.466;18.036;2022-08-19T02:14:17;49.70;;;27.02;;
19207;SDS011;9737;59.466;18.036;2022-08-19T02:16:45;60.35;;;31.23;;
19207;SDS011;9737;59.466;18.036;2022-08-19T02:19:14;61.72;;;29.85;;
19207;SDS011;9737;59.466;18.036;2022-08-19T02:21:42;50.30;;;29.25;;
19207;SDS011;9737;59.466;18.036;2022-08-19T02:24:10;54.45;;;28.80;;
19207;SDS011;9737;59.466;18.036;2022-08-19T02:26:41;51.90;;;28.42;;
19207;SDS011;9737;59.466;18.036;2022-08-19T02:29:09;52.30;;;29.33;;
19207;SDS011;9737;59.466;18.036;2022-08-19T02:31:37;49.08;;;27.83;;
19207;SDS011;9737;59.466;18.036;2022-08-19T02:34:05;56.05;;;29.65;;
19207;SDS011;9737;59.466;18.036;2022-08-19T02:36:33;47.10;;;26.98;;
19207;SDS011;9737;59.466;18.036;2022-08-19T02:39:07;49.67;;;27.98;;
19207;SDS011;9737;59.466;18.036;2022-08-19T02:41:35;57.28;;;28.75;;
19207;SDS011;9737;59.466;18.036;2022-08-19T02:44:04;50.35;;;28.95;;
19207;SDS011;9737;59.466;18.036;2022-08-19T02:46:52;50.30;;;28.17;;
19207;SDS011;9737;59.466;18.036;2022-08-19T02:49:21;50.53;;;28.38;;
19207;SDS011;9737;59.466;18.036;2022-08-19T02:51:49;51.80;;;28.30;;
19207;SDS011;9737;59.466;18.036;2022-08-19T02:54:18;55.38;;;28.60;;
19207;SDS011;9737;59.466;18.036;2022-08-19T02:56:46;57.03;;;29.48;;
19207;SDS011;9737;59.466;18.036;2022-08-19T02:59:15;56.25;;;28.33;;
19207;SDS011;9737;59.466;18.036;2022-08-19T03:01:48;52.20;;;27.75;;
19207;SDS011;9737;59.466;18.036;2022-08-19T03:04:16;58.30;;;28.90;;
19207;SDS011;9737;59.466;18.036;2022-08-19T03:06:46;49.03;;;26.83;;
19207;SDS011;9737;59.466;18.036;2022-08-19T03:09:15;51.22;;;27.85;;
19207;SDS011;9737;59.466;18.036;2022-08-19T03:11:44;52.15;;;28.65;;
19207;SDS011;9737;59.466;18.036;2022-08-19T03:14:16;49.58;;;26.95;;
19207;SDS011;9737;59.466;18.036;2022-08-19T03:16:46;52.83;;;28.33;;
19207;SDS011;9737;59.466;18.036;2022-08-19T03:19:17;57.42;;;29.40;;
19207;SDS011;9737;59.466;18.036;2022-08-19T03:21:47;56.15;;;29.23;;
19207;SDS011;9737;59.466;18.036;2022-08-19T03:24:17;54.45;;;28.77;;
19207;SDS011;9737;59.466;18.036;2022-08-19T03:26:47;47.85;;;25.92;;
19207;SDS011;9737;59.466;18.036;2022-08-19T03:29:19;46.78;;;26.70;;
19207;SDS011;9737;59.466;18.036;2022-08-19T03:31:56;58.22;;;29.33;;
19207;SDS011;9737;59.466;18.036;2022-08-19T03:34:28;54.03;;;28.60;;
19207;SDS011;9737;59.466;18.036;2022-08-19T03:36:58;58.47;;;30.25;;
19207;SDS011;9737;59.466;18.036;2022-08-19T03:39:30;47.10;;;26.75;;
19207;SDS011;9737;59.466;18.036;2022-08-19T03:41:59;54.08;;;27.75;;
19207;SDS011;9737;59.466;18.036;2022-08-19T03:44:50;46.88;;;25.08;;
19207;SDS011;9737;59.466;18.036;2022-08-19T03:47:18;47.53;;;26.58;;
19207;SDS011;9737;59.466;18.036;2022-08-19T03:49:46;53.17;;;26.77;;
19207;SDS011;9737;59.466;18.036;2022-08-19T03:52:15;51.08;;;27.42;;
19207;SDS011;9737;59.466;18.036;2022-08-19T03:54:42;53.55;;;28.85;;
19207;SDS011;9737;59.466;18.036;2022-08-19T03:57:11;49.08;;;26.65;;
19207;SDS011;9737;59.466;18.036;2022-08-19T03:59:39;53.22;;;27.15;;
19207;SDS011;9737;59.466;18.036;2022-08-19T04:02:10;51.97;;;28.10;;
19207;SDS011;9737;59.466;18.036;2022-08-19T04:04:40;59.53;;;28.00;;
19207;SDS011;9737;59.466;18.036;2022-08-19T04:07:10;50.35;;;26.73;;
19207;SDS011;9737;59.466;18.036;2022-08-19T04:09:42;44.42;;;25.73;;
19207;SDS011;9737;59.466;18.036;2022-08-19T04:12:11;53.55;;;28.75;;
19207;SDS011;9737;59.466;18.036;2022-08-19T04:14:39;50.53;;;28.13;;
19207;SDS011;9737;59.466;18.036;2022-08-19T04:17:09;51.10;;;24.88;;
19207;SDS011;9737;59.466;18.036;2022-08-19T04:19:39;52.25;;;27.77;;
19207;SDS011;9737;59.466;18.036;2022-08-19T04:22:09;43.20;;;25.90;;
19207;SDS011;9737;59.466;18.036;2022-08-19T04:24:38;41.95;;;23.67;;
19207;SDS011;9737;59.466;18.036;2022-08-19T04:27:06;47.90;;;25.13;;
19207;SDS011;9737;59.466;18.036;2022-08-19T04:29:41;50.03;;;24.42;;
19207;SDS011;9737;59.466;18.036;2022-08-19T04:32:11;46.67;;;24.55;;
19207;SDS011;9737;59.466;18.036;2022-08-19T04:34:42;46.28;;;24.95;;
19207;SDS011;9737;59.466;18.036;2022-08-19T04:37:30;46.35;;;25.38;;
19207;SDS011;9737;59.466;18.036;2022-08-19T04:40:01;47.65;;;24.23;;
19207;SDS011;9737;59.466;18.036;2022-08-19T04:42:50;42.97;;;24.20;;
19207;SDS011;9737;59.466;18.036;2022-08-19T04:45:20;50.58;;;25.27;;
19207;SDS011;9737;59.466;18.036;2022-08-19T04:47:54;48.05;;;24.27;;
19207;SDS011;9737;59.466;18.036;2022-08-19T04:50:44;42.80;;;23.08;;
19207;SDS011;9737;59.466;18.036;2022-08-19T04:53:12;40.70;;;22.88;;
19207;SDS011;9737;59.466;18.036;2022-08-19T04:55:40;46.33;;;23.13;;
19207;SDS011;9737;59.466;18.036;2022-08-19T04:58:09;51.65;;;25.52;;
19207;SDS011;9737;59.466;18.036;2022-08-19T05:00:37;43.58;;;24.15;;
19207;SDS011;9737;59.466;18.036;2022-08-19T05:03:08;53.85;;;25.55;;
19207;SDS011;9737;59.466;18.036;2022-08-19T05:05:38;50.03;;;25.85;;
19207;SDS011;9737;59.466;18.036;2022-08-19T05:08:14;47.10;;;25.23;;
19207;SDS011;9737;59.466;18.036;2022-08-19T05:10:57;49.72;;;24.73;;
19207;SDS011;9737;59.466;18.036;2022-08-19T05:13:25;47.80;;;24.85;;
19207;SDS011;9737;59.466;18.036;2022-08-19T05:15:54;46.60;;;25.35;;
19207;SDS011;9737;59.466;18.036;2022-08-19T05:18:26;48.10;;;25.17;;
19207;SDS011;9737;59.466;18.036;2022-08-19T05:21:13;49.65;;;24.83;;
19207;SDS011;9737;59.466;18.036;2022-08-19T05:24:01;49.17;;;23.00;;
19207;SDS011;9737;59.466;18.036;2022-08-19T05:26:29;45.80;;;25.10;;
19207;SDS011;9737;59.466;18.036;2022-08-19T05:28:57;55.15;;;25.40;;
19207;SDS011;9737;59.466;18.036;2022-08-19T05:31:26;48.53;;;24.60;;
19207;SDS011;9737;59.466;18.036;2022-08-19T05:33:55;51.15;;;24.73;;
19207;SDS011;9737;59.466;18.036;2022-08-19T05:36:25;50.80;;;25.75;;
19207;SDS011;9737;59.466;18.036;2022-08-19T05:38:53;43.90;;;23.33;;
19207;SDS011;9737;59.466;18.036;2022-08-19T05:41:22;53.53;;;25.35;;
19207;SDS011;9737;59.466;18.036;2022-08-19T05:43:55;47.72;;;24.70;;
19207;SDS011;9737;59.466;18.036;2022-08-19T05:46:24;46.97;;;24.98;;
19207;SDS011;9737;59.466;18.036;2022-08-19T05:48:53;44.92;;;23.75;;
19207;SDS011;9737;59.466;18.036;2022-08-19T05:51:24;48.30;;;22.70;;
19207;SDS011;9737;59.466;18.036;2022-08-19T05:53:55;40.38;;;21.30;;
19207;SDS011;9737;59.466;18.036;2022-08-19T05:56:23;50.28;;;24.30;;
19207;SDS011;9737;59.466;18.036;2022-08-19T05:58:51;53.28;;;23.67;;
19207;SDS011;9737;59.466;18.036;2022-08-19T06:01:24;49.42;;;24.30;;
19207;SDS011;9737;59.466;18.036;2022-08-19T06:03:53;51.33;;;24.15;;
19207;SDS011;9737;59.466;18.036;2022-08-19T06:06:21;44.88;;;22.85;;
19207;SDS011;9737;59.466;18.036;2022-08-19T06:08:51;42.95;;;22.88;;
19207;SDS011;9737;59.466;18.036;2022-08-19T06:11:20;42.10;;;21.67;;
19207;SDS011;9737;59.466;18.036;2022-08-19T06:13:50;44.88;;;22.05;;
19207;SDS011;9737;59.466;18.036;2022-08-19T06:16:25;37.03;;;20.73;;
19207;SDS011;9737;59.466;18.036;2022-08-19T06:19:08;35.70;;;20.27;;
19207;SDS011;9737;59.466;18.036;2022-08-19T06:21:40;37.92;;;20.40;;
19207;SDS011;9737;59.466;18.036;2022-08-19T06:24:10;38.03;;;19.80;;
19207;SDS011;9737;59.466;18.036;2022-08-19T06:26:42;32.75;;;19.15;;
19207;SDS011;9737;59.466;18.036;2022-08-19T06:29:13;37.53;;;20.55;;
19207;SDS011;9737;59.466;18.036;2022-08-19T06:31:50;38.95;;;19.60;;
19207;SDS011;9737;59.466;18.036;2022-08-19T06:34:20;36.30;;;18.58;;
19207;SDS011;9737;59.466;18.036;2022-08-19T06:36:50;27.40;;;16.23;;
19207;SDS011;9737;59.466;18.036;2022-08-19T06:39:21;28.40;;;16.05;;
19207;SDS011;9737;59.466;18.036;2022-08-19T06:41:52;26.55;;;15.90;;
19207;SDS011;9737;59.466;18.036;2022-08-19T06:44:25;28.63;;;16.10;;
19207;SDS011;9737;59.466;18.036;2022-08-19T06:46:57;22.40;;;15.02;;
19207;SDS011;9737;59.466;18.036;2022-08-19T06:49:25;26.25;;;15.23;;
19207;SDS011;9737;59.466;18.036;2022-08-19T06:51:59;20.10;;;14.43;;
19207;SDS011;9737;59.466;18.036;2022-08-19T06:54:28;22.27;;;14.90;;
19207;SDS011;9737;59.466;18.036;2022-08-19T06:57:19;26.92;;;14.00;;
19207;SDS011;9737;59.466;18.036;2022-08-19T06:59:47;28.75;;;14.32;;
19207;SDS011;9737;59.466;18.036;2022-08-19T07:02:15;23.30;;;13.90;;
19207;SDS011;9737;59.466;18.036;2022-08-19T07:04:48;24.67;;;13.70;;
19207;SDS011;9737;59.466;18.036;2022-08-19T07:07:19;19.30;;;12.73;;
19207;SDS011;9737;59.466;18.036;2022-08-19T07:09:49;25.92;;;13.70;;
19207;SDS011;9737;59.466;18.036;2022-08-19T07:12:27;20.70;;;13.07;;
19207;SDS011;9737;59.466;18.036;2022-08-19T07:14:57;25.55;;;13.07;;
19207;SDS011;9737;59.466;18.036;2022-08-19T07:17:27;26.20;;;12.45;;
19207;SDS011;9737;59.466;18.036;2022-08-19T07:19:56;17.77;;;11.95;;
19207;SDS011;9737;59.466;18.036;2022-08-19T07:22:36;22.92;;;11.85;;
19207;SDS011;9737;59.466;18.036;2022-08-19T07:25:05;22.70;;;11.55;;
19207;SDS011;9737;59.466;18.036;2022-08-19T07:27:58;21.27;;;11.18;;
19207;SDS011;9737;59.466;18.036;2022-08-19T07:30:27;21.52;;;11.48;;
19207;SDS011;9737;59.466;18.036;2022-08-19T07:33:00;26.08;;;11.82;;
19207;SDS011;9737;59.466;18.036;2022-08-19T07:35:29;18.77;;;10.80;;
19207;SDS011;9737;59.466;18.036;2022-08-19T07:37:59;23.77;;;11.68;;
19207;SDS011;9737;59.466;18.036;2022-08-19T07:40:30;17.67;;;10.55;;
19207;SDS011;9737;59.466;18.036;2022-08-19T07:43:00;28.95;;;11.52;;
19207;SDS011;9737;59.466;18.036;2022-08-19T07:45:28;18.25;;;11.10;;
19207;SDS011;9737;59.466;18.036;2022-08-19T07:47:59;17.83;;;9.73;;
19207;SDS011;9737;59.466;18.036;2022-08-19T07:50:28;18.27;;;9.50;;
19207;SDS011;9737;59.466;18.036;2022-08-19T07:52:57;15.88;;;9.15;;
19207;SDS011;9737;59.466;18.036;2022-08-19T07:55:27;17.55;;;9.82;;
19207;SDS011;9737;59.466;18.036;2022-08-19T07:58:10;19.20;;;9.65;;
19207;SDS011;9737;59.466;18.036;2022-08-19T08:00:43;16.52;;;9.18;;
19207;SDS011;9737;59.466;18.036;2022-08-19T08:03:12;18.98;;;9.15;;
19207;SDS011;9737;59.466;18.036;2022-08-19T08:05:42;14.27;;;8.63;;
19207;SDS011;9737;59.466;18.036;2022-08-19T08:08:30;20.08;;;8.77;;
19207;SDS011;9737;59.466;18.036;2022-08-19T08:11:18;19.55;;;8.23;;
19207;SDS011;9737;59.466;18.036;2022-08-19T08:13:49;16.42;;;7.88;;
19207;SDS011;9737;59.466;18.036;2022-08-19T08:16:30;17.73;;;8.18;;
19207;SDS011;9737;59.466;18.036;2022-08-19T08:19:00;22.52;;;7.97;;
19207;SDS011;9737;59.466;18.036;2022-08-19T08:21:33;17.90;;;7.55;;
19207;SDS011;9737;59.466;18.036;2022-08-19T08:24:03;24.48;;;7.97;;
19207;SDS011;9737;59.466;18.036;2022-08-19T08:26:31;16.45;;;7.90;;
19207;SDS011;9737;59.466;18.036;2022-08-19T08:29:00;15.15;;;7.25;;
19207;SDS011;9737;59.466;18.036;2022-08-19T08:31:38;16.10;;;7.55;;
19207;SDS011;9737;59.466;18.036;2022-08-19T08:34:11;16.95;;;7.72;;
19207;SDS011;9737;59.466;18.036;2022-08-19T08:36:41;13.05;;;7.35;;
19207;SDS011;9737;59.466;18.036;2022-08-19T08:39:15;13.38;;;7.40;;
19207;SDS011;9737;59.466;18.036;2022-08-19T08:41:46;17.45;;;7.47;;
19207;SDS011;9737;59.466;18.036;2022-08-19T08:44:21;15.15;;;7.63;;
19207;SDS011;9737;59.466;18.036;2022-08-19T08:46:51;18.95;;;7.68;;
19207;SDS011;9737;59.466;18.036;2022-08-19T08:49:28;18.13;;;7.68;;
19207;SDS011;9737;59.466;18.036;2022-08-19T08:52:02;18.67;;;7.78;;
19207;SDS011;9737;59.466;18.036;2022-08-19T08:54:37;17.98;;;7.75;;
19207;SDS011;9737;59.466;18.036;2022-08-19T08:57:23;17.45;;;7.65;;
19207;SDS011;9737;59.466;18.036;2022-08-19T09:00:00;12.80;;;7.32;;
19207;SDS011;9737;59.466;18.036;2022-08-19T09:02:40;17.08;;;7.65;;
19207;SDS011;9737;59.466;18.036;2022-08-19T09:05:09;17.42;;;6.88;;
19207;SDS011;9737;59.466;18.036;2022-08-19T09:07:44;14.45;;;7.57;;
19207;SDS011;9737;59.466;18.036;2022-08-19T09:10:24;17.73;;;7.20;;
19207;SDS011;9737;59.466;18.036;2022-08-19T09:13:02;14.05;;;6.57;;
19207;SDS011;9737;59.466;18.036;2022-08-19T09:15:40;18.40;;;6.97;;
19207;SDS011;9737;59.466;18.036;2022-08-19T09:18:17;14.73;;;6.65;;
19207;SDS011;9737;59.466;18.036;2022-08-19T09:20:46;11.88;;;6.25;;
19207;SDS011;9737;59.466;18.036;2022-08-19T09:23:15;19.38;;;5.97;;
19207;SDS011;9737;59.466;18.036;2022-08-19T09:25:53;13.13;;;6.28;;
19207;SDS011;9737;59.466;18.036;2022-08-19T09:28:24;13.77;;;5.93;;
19207;SDS011;9737;59.466;18.036;2022-08-19T09:30:57;12.70;;;5.70;;
19207;SDS011;9737;59.466;18.036;2022-08-19T09:33:32;14.15;;;6.40;;
19207;SDS011;9737;59.466;18.036;2022-08-19T09:36:02;10.68;;;5.70;;
19207;SDS011;9737;59.466;18.036;2022-08-19T09:38:34;13.20;;;5.40;;
19207;SDS011;9737;59.466;18.036;2022-08-19T09:41:11;13.60;;;5.05;;
19207;SDS011;9737;59.466;18.036;2022-08-19T09:43:41;14.10;;;5.15;;
19207;SDS011;9737;59.466;18.036;2022-08-19T09:46:14;11.65;;;5.38;;
19207;SDS011;9737;59.466;18.036;2022-08-19T09:48:49;8.73;;;4.45;;
19207;SDS011;9737;59.466;18.036;2022-08-19T09:51:22;13.75;;;4.93;;
19207;SDS011;9737;59.466;18.036;2022-08-19T09:54:00;14.68;;;4.85;;
19207;SDS011;9737;59.466;18.036;2022-08-19T09:56:34;9.02;;;4.53;;
19207;SDS011;9737;59.466;18.036;2022-08-19T09:59:02;12.05;;;4.30;;
19207;SDS011;9737;59.466;18.036;2022-08-19T10:01:31;11.32;;;4.25;;
19207;SDS011;9737;59.466;18.036;2022-08-19T10:04:00;11.23;;;4.55;;
19207;SDS011;9737;59.466;18.036;2022-08-19T10:06:46;15.07;;;4.32;;
19207;SDS011;9737;59.466;18.036;2022-08-19T10:09:23;9.48;;;4.00;;
19207;SDS011;9737;59.466;18.036;2022-08-19T10:12:01;8.27;;;3.97;;
19207;SDS011;9737;59.466;18.036;2022-08-19T10:14:36;12.98;;;4.22;;
19207;SDS011;9737;59.466;18.036;2022-08-19T10:17:06;11.98;;;4.03;;
19207;SDS011;9737;59.466;18.036;2022-08-19T10:19:46;9.68;;;3.70;;
19207;SDS011;9737;59.466;18.036;2022-08-19T10:22:21;10.80;;;3.83;;
19207;SDS011;9737;59.466;18.036;2022-08-19T10:24:51;10.52;;;3.92;;
19207;SDS011;9737;59.466;18.036;2022-08-19T10:27:22;8.32;;;3.85;;
19207;SDS011;9737;59.466;18.036;2022-08-19T10:29:52;10.45;;;3.80;;
19207;SDS011;9737;59.466;18.036;2022-08-19T10:32:20;7.70;;;3.58;;
19207;SDS011;9737;59.466;18.036;2022-08-19T10:34:59;15.65;;;3.72;;
19207;SDS011;9737;59.466;18.036;2022-08-19T10:37:31;9.45;;;3.60;;
19207;SDS011;9737;59.466;18.036;2022-08-19T10:40:22;11.73;;;3.55;;
19207;SDS011;9737;59.466;18.036;2022-08-19T10:42:51;15.75;;;3.83;;
19207;SDS011;9737;59.466;18.036;2022-08-19T10:45:19;11.13;;;3.75;;
19207;SDS011;9737;59.466;18.036;2022-08-19T10:47:53;9.98;;;3.70;;
19207;SDS011;9737;59.466;18.036;2022-08-19T10:50:22;11.02;;;3.45;;
19207;SDS011;9737;59.466;18.036;2022-08-19T10:53:07;7.43;;;3.38;;
19207;SDS011;9737;59.466;18.036;2022-08-19T10:55:36;12.77;;;3.55;;
19207;SDS011;9737;59.466;18.036;2022-08-19T10:58:26;9.68;;;3.50;;
19207;SDS011;9737;59.466;18.036;2022-08-19T11:00:55;10.85;;;3.50;;
19207;SDS011;9737;59.466;18.036;2022-08-19T11:03:25;8.82;;;3.75;;
19207;SDS011;9737;59.466;18.036;2022-08-19T11:05:57;10.93;;;3.70;;
19207;SDS011;9737;59.466;18.036;2022-08-19T11:08:27;8.63;;;3.97;;
19207;SDS011;9737;59.466;18.036;2022-08-19T11:10:59;9.13;;;3.83;;
19207;SDS011;9737;59.466;18.036;2022-08-19T11:13:34;14.10;;;4.50;;
19207;SDS011;9737;59.466;18.036;2022-08-19T11:16:06;11.38;;;4.50;;
19207;SDS011;9737;59.466;18.036;2022-08-19T11:18:37;12.35;;;4.28;;
19207;SDS011;9737;59.466;18.036;2022-08-19T11:21:10;10.13;;;3.78;;
19207;SDS011;9737;59.466;18.036;2022-08-19T11:23:40;15.55;;;4.38;;
19207;SDS011;9737;59.466;18.036;2022-08-19T11:26:09;13.82;;;4.57;;
19207;SDS011;9737;59.466;18.036;2022-08-19T11:28:39;9.35;;;4.10;;
19207;SDS011;9737;59.466;18.036;2022-08-19T11:31:13;8.70;;;4.20;;
19207;SDS011;9737;59.466;18.036;2022-08-19T11:33:43;12.75;;;4.22;;
19207;SDS011;9737;59.466;18.036;2022-08-19T11:36:13;9.68;;;4.50;;
19207;SDS011;9737;59.466;18.036;2022-08-19T11:38:42;13.25;;;4.07;;
19207;SDS011;9737;59.466;18.036;2022-08-19T11:41:11;12.00;;;4.00;;
19207;SDS011;9737;59.466;18.036;2022-08-19T11:43:40;12.35;;;4.97;;
19207;SDS011;9737;59.466;18.036;2022-08-19T11:46:12;11.02;;;4.57;;
19207;SDS011;9737;59.466;18.036;2022-08-19T11:48:44;11.20;;;4.55;;
19207;SDS011;9737;59.466;18.036;2022-08-19T11:51:13;12.68;;;4.10;;
19207;SDS011;9737;59.466;18.036;2022-08-19T11:53:44;15.57;;;4.28;;
19207;SDS011;9737;59.466;18.036;2022-08-19T11:56:13;13.90;;;4.03;;
19207;SDS011;9737;59.466;18.036;2022-08-19T11:58:45;10.95;;;3.95;;
19207;SDS011;9737;59.466;18.036;2022-08-19T12:01:14;8.75;;;4.15;;
19207;SDS011;9737;59.466;18.036;2022-08-19T12:03:45;9.23;;;4.03;;
19207;SDS011;9737;59.466;18.036;2022-08-19T12:06:15;8.43;;;4.45;;
19207;SDS011;9737;59.466;18.036;2022-08-19T12:08:47;10.27;;;4.53;;
19207;SDS011;9737;59.466;18.036;2022-08-19T12:11:15;10.45;;;4.63;;
19207;SDS011;9737;59.466;18.036;2022-08-19T12:13:45;12.23;;;4.78;;
19207;SDS011;9737;59.466;18.036;2022-08-19T12:16:15;11.55;;;4.43;;
19207;SDS011;9737;59.466;18.036;2022-08-19T12:18:45;10.50;;;4.57;;
19207;SDS011;9737;59.466;18.036;2022-08-19T12:21:14;13.63;;;5.15;;
19207;SDS011;9737;59.466;18.036;2022-08-19T12:23:43;10.40;;;4.75;;
19207;SDS011;9737;59.466;18.036;2022-08-19T12:26:12;13.50;;;5.10;;
19207;SDS011;9737;59.466;18.036;2022-08-19T12:28:40;12.02;;;4.95;;
19207;SDS011;9737;59.466;18.036;2022-08-19T12:34:00;10.18;;;4.60;;
19207;SDS011;9737;59.466;18.036;2022-08-19T12:36:29;9.38;;;5.10;;
19207;SDS011;9737;59.466;18.036;2022-08-19T12:38:58;7.75;;;5.18;;
19207;SDS011;9737;59.466;18.036;2022-08-19T12:41:27;11.55;;;5.32;;
19207;SDS011;9737;59.466;18.036;2022-08-19T12:43:55;13.73;;;5.57;;
19207;SDS011;9737;59.466;18.036;2022-08-19T12:46:24;11.65;;;5.32;;
19207;SDS011;9737;59.466;18.036;2022-08-19T12:48:53;13.70;;;5.57;;
19207;SDS011;9737;59.466;18.036;2022-08-19T12:51:22;11.57;;;5.60;;
19207;SDS011;9737;59.466;18.036;2022-08-19T12:54:01;12.02;;;5.20;;
19207;SDS011;9737;59.466;18.036;2022-08-19T12:56:33;19.98;;;5.40;;
19207;SDS011;9737;59.466;18.036;2022-08-19T12:59:03;13.43;;;5.20;;
19207;SDS011;9737;59.466;18.036;2022-08-19T13:01:34;11.98;;;5.15;;
19207;SDS011;9737;59.466;18.036;2022-08-19T13:04:06;10.10;;;5.25;;
19207;SDS011;9737;59.466;18.036;2022-08-19T13:06:35;13.13;;;5.40;;
19207;SDS011;9737;59.466;18.036;2022-08-19T13:09:03;12.93;;;5.82;;
19207;SDS011;9737;59.466;18.036;2022-08-19T13:11:32;16.35;;;5.60;;
19207;SDS011;9737;59.466;18.036;2022-08-19T13:14:01;13.77;;;5.43;;
19207;SDS011;9737;59.466;18.036;2022-08-19T13:16:30;14.55;;;5.60;;
19207;SDS011;9737;59.466;18.036;2022-08-19T13:19:00;20.83;;;5.88;;
19207;SDS011;9737;59.466;18.036;2022-08-19T13:21:40;17.15;;;5.25;;
19207;SDS011;9737;59.466;18.036;2022-08-19T13:24:11;17.48;;;5.40;;
19207;SDS011;9737;59.466;18.036;2022-08-19T13:26:39;15.63;;;5.20;;
19207;SDS011;9737;59.466;18.036;2022-08-19T13:29:11;14.95;;;5.20;;
19207;SDS011;9737;59.466;18.036;2022-08-19T13:31:57;18.88;;;5.20;;
19207;SDS011;9737;59.466;18.036;2022-08-19T13:34:46;15.13;;;5.60;;
19207;SDS011;9737;59.466;18.036;2022-08-19T13:37:16;15.98;;;4.97;;
19207;SDS011;9737;59.466;18.036;2022-08-19T13:40:05;17.27;;;5.32;;
19207;SDS011;9737;59.466;18.036;2022-08-19T13:42:34;12.63;;;5.10;;
19207;SDS011;9737;59.466;18.036;2022-08-19T13:45:02;12.63;;;5.32;;
19207;SDS011;9737;59.466;18.036;2022-08-19T13:47:31;11.00;;;5.68;;
19207;SDS011;9737;59.466;18.036;2022-08-19T13:50:02;12.18;;;5.80;;
19207;SDS011;9737;59.466;18.036;2022-08-19T13:52:31;12.90;;;5.53;;
19207;SDS011;9737;59.466;18.036;2022-08-19T13:55:02;13.85;;;5.10;;
19207;SDS011;9737;59.466;18.036;2022-08-19T13:57:31;11.10;;;5.43;;
19207;SDS011;9737;59.466;18.036;2022-08-19T14:00:02;11.75;;;5.05;;
19207;SDS011;9737;59.466;18.036;2022-08-19T14:02:43;13.43;;;5.35;;
19207;SDS011;9737;59.466;18.036;2022-08-19T14:05:14;15.30;;;5.57;;
19207;SDS011;9737;59.466;18.036;2022-08-19T14:07:45;16.38;;;5.55;;
19207;SDS011;9737;59.466;18.036;2022-08-19T14:10:14;18.85;;;5.20;;
19207;SDS011;9737;59.466;18.036;2022-08-19T14:12:43;10.30;;;4.93;;
19207;SDS011;9737;59.466;18.036;2022-08-19T14:15:13;18.38;;;5.10;;
19207;SDS011;9737;59.466;18.036;2022-08-19T14:17:43;10.50;;;4.80;;
19207;SDS011;9737;59.466;18.036;2022-08-19T14:20:15;15.43;;;4.68;;
19207;SDS011;9737;59.466;18.036;2022-08-19T14:22:47;12.70;;;4.35;;
19207;SDS011;9737;59.466;18.036;2022-08-19T14:25:20;11.23;;;4.30;;
19207;SDS011;9737;59.466;18.036;2022-08-19T14:27:50;14.63;;;4.40;;
19207;SDS011;9737;59.466;18.036;2022-08-19T14:30:20;11.02;;;4.47;;
19207;SDS011;9737;59.466;18.036;2022-08-19T14:32:52;9.65;;;4.55;;
19207;SDS011;9737;59.466;18.036;2022-08-19T14:35:20;16.67;;;4.57;;
19207;SDS011;9737;59.466;18.036;2022-08-19T14:37:51;10.93;;;4.63;;
19207;SDS011;9737;59.466;18.036;2022-08-19T14:40:23;11.85;;;4.47;;
19207;SDS011;9737;59.466;18.036;2022-08-19T14:42:53;9.52;;;4.60;;
19207;SDS011;9737;59.466;18.036;2022-08-19T14:45:25;9.80;;;4.40;;
19207;SDS011;9737;59.466;18.036;2022-08-19T14:48:06;12.73;;;4.68;;
19207;SDS011;9737;59.466;18.036;2022-08-19T14:50:44;12.82;;;4.82;;
19207;SDS011;9737;59.466;18.036;2022-08-19T14:53:15;12.98;;;4.60;;
19207;SDS011;9737;59.466;18.036;2022-08-19T14:55:44;12.27;;;4.93;;
19207;SDS011;9737;59.466;18.036;2022-08-19T14:58:13;11.77;;;4.38;;